sensor_id;sensor_type;location;lat;lon;timestamp;pressure;altitude;pressure_sealevel;temperature;humidity
10720;BME280;5411;58.386;15.560;2022-07-17T00:01:06;100788.91;;;13.40;85.89
10720;BME280;5411;58.386;15.560;2022-07-17T00:03:34;100792.03;;;13.37;87.51
10720;BME280;5411;58.386;15.560;2022-07-17T00:06:05;100785.03;;;13.29;88.00
10720;BME280;5411;58.386;15.560;2022-07-17T00:08:33;100788.97;;;13.27;88.77
10720;BME280;5411;58.386;15.560;2022-07-17T00:11:04;100792.47;;;13.20;89.09
10720;BME280;5411;58.386;15.560;2022-07-17T00:13:34;100795.59;;;13.17;89.85
10720;BME280;5411;58.386;15.560;2022-07-17T00:16:02;100795.56;;;13.11;90.84
10720;BME280;5411;58.386;15.560;2022-07-17T00:18:30;100799.28;;;13.03;92.34
10720;BME280;5411;58.386;15.560;2022-07-17T00:20:58;100798.25;;;12.98;93.46
10720;BME280;5411;58.386;15.560;2022-07-17T00:23:26;100790.59;;;12.95;93.33
10720;BME280;5411;58.386;15.560;2022-07-17T00:25:54;100794.75;;;12.97;95.21
10720;BME280;5411;58.386;15.560;2022-07-17T00:28:22;100793.91;;;12.97;95.60
10720;BME280;5411;58.386;15.560;2022-07-17T00:30:52;100789.56;;;12.96;96.23
10720;BME280;5411;58.386;15.560;2022-07-17T00:33:20;100791.84;;;12.99;96.72
10720;BME280;5411;58.386;15.560;2022-07-17T00:35:48;100794.34;;;13.00;97.21
10720;BME280;5411;58.386;15.560;2022-07-17T00:38:16;100805.50;;;13.04;97.58
10720;BME280;5411;58.386;15.560;2022-07-17T00:40:45;100799.88;;;13.05;98.44
10720;BME280;5411;58.386;15.560;2022-07-17T00:43:13;100798.03;;;13.06;99.07
10720;BME280;5411;58.386;15.560;2022-07-17T00:45:42;100788.31;;;13.11;99.42
10720;BME280;5411;58.386;15.560;2022-07-17T00:48:11;100783.19;;;13.16;99.72
10720;BME280;5411;58.386;15.560;2022-07-17T00:50:41;100781.50;;;13.22;99.22
10720;BME280;5411;58.386;15.560;2022-07-17T00:53:09;100790.81;;;13.26;99.56
10720;BME280;5411;58.386;15.560;2022-07-17T00:55:39;100796.81;;;13.28;99.76
10720;BME280;5411;58.386;15.560;2022-07-17T00:58:10;100789.56;;;13.29;99.57
10720;BME280;5411;58.386;15.560;2022-07-17T01:00:38;100804.47;;;13.31;99.44
10720;BME280;5411;58.386;15.560;2022-07-17T01:03:08;100801.31;;;13.34;100.00
10720;BME280;5411;58.386;15.560;2022-07-17T01:05:38;100796.78;;;13.35;99.70
10720;BME280;5411;58.386;15.560;2022-07-17T01:08:07;100799.25;;;13.36;99.31
10720;BME280;5411;58.386;15.560;2022-07-17T01:10:35;100796.56;;;13.36;100.00
10720;BME280;5411;58.386;15.560;2022-07-17T01:13:04;100793.06;;;13.36;100.00
10720;BME280;5411;58.386;15.560;2022-07-17T01:15:33;100791.63;;;13.33;100.00
10720;BME280;5411;58.386;15.560;2022-07-17T01:18:04;100792.69;;;13.26;100.00
10720;BME280;5411;58.386;15.560;2022-07-17T01:20:35;100790.81;;;13.26;100.00
10720;BME280;5411;58.386;15.560;2022-07-17T01:23:05;100792.25;;;13.22;100.00
10720;BME280;5411;58.386;15.560;2022-07-17T01:25:33;100796.41;;;13.18;100.00
10720;BME280;5411;58.386;15.560;2022-07-17T01:28:03;100788.13;;;13.13;100.00
10720;BME280;5411;58.386;15.560;2022-07-17T01:30:32;100786.88;;;13.09;100.00
10720;BME280;5411;58.386;15.560;2022-07-17T01:33:01;100792.06;;;13.04;100.00
10720;BME280;5411;58.386;15.560;2022-07-17T01:35:30;100798.06;;;12.99;100.00
10720;BME280;5411;58.386;15.560;2022-07-17T01:37:58;100785.22;;;12.95;100.00
10720;BME280;5411;58.386;15.560;2022-07-17T01:40:28;100795.78;;;12.90;100.00
10720;BME280;5411;58.386;15.560;2022-07-17T01:43:02;100796.19;;;12.87;100.00
10720;BME280;5411;58.386;15.560;2022-07-17T01:45:42;100793.09;;;12.83;100.00
10720;BME280;5411;58.386;15.560;2022-07-17T01:48:10;100785.66;;;12.78;100.00
10720;BME280;5411;58.386;15.560;2022-07-17T01:50:38;100782.38;;;12.76;100.00
10720;BME280;5411;58.386;15.560;2022-07-17T01:53:06;100787.13;;;12.74;100.00
10720;BME280;5411;58.386;15.560;2022-07-17T01:55:36;100789.38;;;12.71;100.00
10720;BME280;5411;58.386;15.560;2022-07-17T01:58:13;100788.75;;;12.69;100.00
10720;BME280;5411;58.386;15.560;2022-07-17T02:00:43;100789.16;;;12.66;100.00
10720;BME280;5411;58.386;15.560;2022-07-17T02:03:13;100794.97;;;12.63;100.00
10720;BME280;5411;58.386;15.560;2022-07-17T02:05:41;100794.53;;;12.59;100.00
10720;BME280;5411;58.386;15.560;2022-07-17T02:08:09;100795.34;;;12.53;100.00
10720;BME280;5411;58.386;15.560;2022-07-17T02:10:39;100787.72;;;12.50;100.00
10720;BME280;5411;58.386;15.560;2022-07-17T02:13:08;100787.28;;;12.46;100.00
10720;BME280;5411;58.386;15.560;2022-07-17T02:15:43;100792.88;;;12.45;100.00
10720;BME280;5411;58.386;15.560;2022-07-17T02:18:11;100791.59;;;12.41;100.00
10720;BME280;5411;58.386;15.560;2022-07-17T02:20:39;100786.44;;;12.39;100.00
10720;BME280;5411;58.386;15.560;2022-07-17T02:23:09;100787.06;;;12.35;100.00
10720;BME280;5411;58.386;15.560;2022-07-17T02:25:37;100792.44;;;12.35;100.00
10720;BME280;5411;58.386;15.560;2022-07-17T02:28:07;100794.69;;;12.31;100.00
10720;BME280;5411;58.386;15.560;2022-07-17T02:30:35;100791.19;;;12.31;100.00
10720;BME280;5411;58.386;15.560;2022-07-17T02:33:03;100790.34;;;12.30;100.00
10720;BME280;5411;58.386;15.560;2022-07-17T02:35:33;100788.06;;;12.27;100.00
10720;BME280;5411;58.386;15.560;2022-07-17T02:38:02;100793.44;;;12.27;100.00
10720;BME280;5411;58.386;15.560;2022-07-17T02:40:30;100799.00;;;12.26;100.00
10720;BME280;5411;58.386;15.560;2022-07-17T02:42:58;100795.72;;;12.24;100.00
10720;BME280;5411;58.386;15.560;2022-07-17T02:45:28;100796.94;;;12.21;100.00
10720;BME280;5411;58.386;15.560;2022-07-17T02:47:56;100789.53;;;12.23;100.00
10720;BME280;5411;58.386;15.560;2022-07-17T02:50:24;100790.34;;;12.24;100.00
10720;BME280;5411;58.386;15.560;2022-07-17T02:52:52;100794.91;;;12.23;100.00
10720;BME280;5411;58.386;15.560;2022-07-17T02:55:25;100790.34;;;12.24;100.00
10720;BME280;5411;58.386;15.560;2022-07-17T02:57:54;100796.31;;;12.26;100.00
10720;BME280;5411;58.386;15.560;2022-07-17T03:00:22;100807.88;;;12.26;100.00
10720;BME280;5411;58.386;15.560;2022-07-17T03:02:52;100806.22;;;12.25;100.00
10720;BME280;5411;58.386;15.560;2022-07-17T03:05:23;100804.59;;;12.31;100.00
10720;BME280;5411;58.386;15.560;2022-07-17T03:07:51;100803.81;;;12.37;100.00
10720;BME280;5411;58.386;15.560;2022-07-17T03:10:19;100817.66;;;12.60;100.00
10720;BME280;5411;58.386;15.560;2022-07-17T03:12:47;100812.72;;;12.97;100.00
10720;BME280;5411;58.386;15.560;2022-07-17T03:15:15;100815.22;;;13.25;100.00
10720;BME280;5411;58.386;15.560;2022-07-17T03:17:48;100819.13;;;13.29;100.00
10720;BME280;5411;58.386;15.560;2022-07-17T03:20:18;100822.03;;;13.27;100.00
10720;BME280;5411;58.386;15.560;2022-07-17T03:22:46;100828.84;;;13.23;100.00
10720;BME280;5411;58.386;15.560;2022-07-17T03:25:14;100830.91;;;13.21;100.00
10720;BME280;5411;58.386;15.560;2022-07-17T03:27:43;100822.84;;;13.28;100.00
10720;BME280;5411;58.386;15.560;2022-07-17T03:30:17;100826.97;;;13.37;100.00
10720;BME280;5411;58.386;15.560;2022-07-17T03:32:45;100835.00;;;13.50;100.00
10720;BME280;5411;58.386;15.560;2022-07-17T03:35:13;100833.16;;;13.50;100.00
10720;BME280;5411;58.386;15.560;2022-07-17T03:37:42;100831.50;;;13.49;100.00
10720;BME280;5411;58.386;15.560;2022-07-17T03:40:11;100836.88;;;13.56;100.00
10720;BME280;5411;58.386;15.560;2022-07-17T03:42:39;100832.41;;;13.88;100.00
10720;BME280;5411;58.386;15.560;2022-07-17T03:45:08;100836.44;;;14.17;100.00
10720;BME280;5411;58.386;15.560;2022-07-17T03:47:37;100840.88;;;14.43;98.51
10720;BME280;5411;58.386;15.560;2022-07-17T03:50:05;100843.81;;;14.66;96.24
10720;BME280;5411;58.386;15.560;2022-07-17T03:52:34;100836.25;;;14.81;94.81
10720;BME280;5411;58.386;15.560;2022-07-17T03:55:04;100834.50;;;14.93;92.84
10720;BME280;5411;58.386;15.560;2022-07-17T03:57:32;100840.47;;;15.02;91.61
10720;BME280;5411;58.386;15.560;2022-07-17T04:00:01;100838.97;;;15.06;90.82
10720;BME280;5411;58.386;15.560;2022-07-17T04:02:29;100846.78;;;15.14;89.77
10720;BME280;5411;58.386;15.560;2022-07-17T04:04:57;100845.84;;;15.27;89.12
10720;BME280;5411;58.386;15.560;2022-07-17T04:07:30;100851.16;;;15.33;88.87
10720;BME280;5411;58.386;15.560;2022-07-17T04:09:59;100847.38;;;15.41;88.00
10720;BME280;5411;58.386;15.560;2022-07-17T04:12:29;100845.63;;;15.47;87.12
10720;BME280;5411;58.386;15.560;2022-07-17T04:14:58;100846.22;;;15.55;86.96
10720;BME280;5411;58.386;15.560;2022-07-17T04:17:26;100847.47;;;15.53;86.64
10720;BME280;5411;58.386;15.560;2022-07-17T04:19:54;100845.91;;;15.63;85.66
10720;BME280;5411;58.386;15.560;2022-07-17T04:22:22;100850.13;;;15.78;85.61
10720;BME280;5411;58.386;15.560;2022-07-17T04:24:51;100849.38;;;15.89;84.77
10720;BME280;5411;58.386;15.560;2022-07-17T04:27:19;100840.53;;;15.82;84.93
10720;BME280;5411;58.386;15.560;2022-07-17T04:29:49;100838.28;;;15.79;85.07
10720;BME280;5411;58.386;15.560;2022-07-17T04:32:17;100833.94;;;15.78;85.86
10720;BME280;5411;58.386;15.560;2022-07-17T04:34:45;100842.03;;;15.78;85.79
10720;BME280;5411;58.386;15.560;2022-07-17T04:37:13;100834.75;;;15.78;86.04
10720;BME280;5411;58.386;15.560;2022-07-17T04:39:41;100844.13;;;15.76;86.39
10720;BME280;5411;58.386;15.560;2022-07-17T04:42:09;100846.69;;;15.71;87.36
10720;BME280;5411;58.386;15.560;2022-07-17T04:44:38;100847.94;;;15.68;87.48
10720;BME280;5411;58.386;15.560;2022-07-17T04:47:07;100846.75;;;15.64;87.96
10720;BME280;5411;58.386;15.560;2022-07-17T04:49:35;100848.00;;;15.61;88.56
10720;BME280;5411;58.386;15.560;2022-07-17T04:52:04;100853.69;;;15.53;89.32
10720;BME280;5411;58.386;15.560;2022-07-17T04:54:32;100845.84;;;15.45;89.95
10720;BME280;5411;58.386;15.560;2022-07-17T04:57:00;100859.50;;;15.57;90.54
10720;BME280;5411;58.386;15.560;2022-07-17T04:59:28;100851.75;;;15.60;90.66
10720;BME280;5411;58.386;15.560;2022-07-17T05:01:56;100845.69;;;15.65;90.68
10720;BME280;5411;58.386;15.560;2022-07-17T05:04:28;100849.38;;;15.71;90.91
10720;BME280;5411;58.386;15.560;2022-07-17T05:06:56;100842.19;;;15.83;90.61
10720;BME280;5411;58.386;15.560;2022-07-17T05:09:24;100844.13;;;15.94;90.40
10720;BME280;5411;58.386;15.560;2022-07-17T05:11:53;100837.97;;;16.05;90.28
10720;BME280;5411;58.386;15.560;2022-07-17T05:14:20;100843.97;;;16.07;90.69
10720;BME280;5411;58.386;15.560;2022-07-17T05:16:49;100846.06;;;16.05;90.45
10720;BME280;5411;58.386;15.560;2022-07-17T05:19:17;100842.09;;;16.08;90.83
10720;BME280;5411;58.386;15.560;2022-07-17T05:21:46;100850.31;;;16.13;90.06
10720;BME280;5411;58.386;15.560;2022-07-17T05:24:15;100845.50;;;16.15;90.25
10720;BME280;5411;58.386;15.560;2022-07-17T05:26:43;100852.78;;;16.14;90.74
10720;BME280;5411;58.386;15.560;2022-07-17T05:29:11;100847.75;;;16.18;90.97
10720;BME280;5411;58.386;15.560;2022-07-17T05:31:39;100857.13;;;16.15;91.32
10720;BME280;5411;58.386;15.560;2022-07-17T05:34:07;100856.09;;;16.16;91.61
10720;BME280;5411;58.386;15.560;2022-07-17T05:36:36;100864.34;;;16.21;92.46
10720;BME280;5411;58.386;15.560;2022-07-17T05:39:06;100863.28;;;16.22;92.44
10720;BME280;5411;58.386;15.560;2022-07-17T05:41:34;100859.66;;;16.28;92.33
10720;BME280;5411;58.386;15.560;2022-07-17T05:44:03;100856.53;;;16.31;92.65
10720;BME280;5411;58.386;15.560;2022-07-17T05:46:31;100851.72;;;16.33;92.20
10720;BME280;5411;58.386;15.560;2022-07-17T05:49:00;100856.72;;;16.48;92.12
10720;BME280;5411;58.386;15.560;2022-07-17T05:51:28;100862.38;;;16.77;91.10
10720;BME280;5411;58.386;15.560;2022-07-17T05:53:56;100859.81;;;17.05;90.15
10720;BME280;5411;58.386;15.560;2022-07-17T05:56:26;100858.78;;;17.41;90.08
10720;BME280;5411;58.386;15.560;2022-07-17T05:58:54;100858.31;;;17.56;79.86
10720;BME280;5411;58.386;15.560;2022-07-17T06:01:22;100854.34;;;17.70;81.28
10720;BME280;5411;58.386;15.560;2022-07-17T06:03:52;100862.88;;;17.90;80.04
10720;BME280;5411;58.386;15.560;2022-07-17T06:06:21;100857.44;;;18.02;72.60
10720;BME280;5411;58.386;15.560;2022-07-17T06:08:49;100855.19;;;17.99;71.43
10720;BME280;5411;58.386;15.560;2022-07-17T06:11:18;100848.38;;;18.08;71.74
10720;BME280;5411;58.386;15.560;2022-07-17T06:13:55;100858.06;;;18.32;66.06
10720;BME280;5411;58.386;15.560;2022-07-17T06:16:25;100859.88;;;18.43;65.41
10720;BME280;5411;58.386;15.560;2022-07-17T06:18:56;100866.56;;;18.52;65.03
10720;BME280;5411;58.386;15.560;2022-07-17T06:21:25;100854.47;;;18.72;65.17
10720;BME280;5411;58.386;15.560;2022-07-17T06:23:53;100852.88;;;18.88;62.49
10720;BME280;5411;58.386;15.560;2022-07-17T06:26:22;100850.91;;;19.00;63.55
10720;BME280;5411;58.386;15.560;2022-07-17T06:28:54;100850.22;;;19.09;61.87
10720;BME280;5411;58.386;15.560;2022-07-17T06:31:23;100848.41;;;19.32;60.54
10720;BME280;5411;58.386;15.560;2022-07-17T06:33:52;100855.81;;;19.36;58.56
10720;BME280;5411;58.386;15.560;2022-07-17T06:36:20;100858.84;;;19.40;59.45
10720;BME280;5411;58.386;15.560;2022-07-17T06:39:01;100849.63;;;19.41;58.54
10720;BME280;5411;58.386;15.560;2022-07-17T06:41:30;100858.91;;;19.45;58.28
10720;BME280;5411;58.386;15.560;2022-07-17T06:43:59;100852.16;;;19.47;59.50
10720;BME280;5411;58.386;15.560;2022-07-17T06:46:28;100861.47;;;19.35;58.45
10720;BME280;5411;58.386;15.560;2022-07-17T06:48:56;100854.25;;;19.23;59.03
10720;BME280;5411;58.386;15.560;2022-07-17T06:51:25;100855.41;;;19.28;58.93
10720;BME280;5411;58.386;15.560;2022-07-17T06:53:56;100844.81;;;19.26;58.78
10720;BME280;5411;58.386;15.560;2022-07-17T06:56:25;100841.03;;;19.27;59.74
10720;BME280;5411;58.386;15.560;2022-07-17T06:58:53;100843.16;;;19.25;58.87
10720;BME280;5411;58.386;15.560;2022-07-17T07:01:24;100844.97;;;19.19;58.76
10720;BME280;5411;58.386;15.560;2022-07-17T07:03:52;100849.31;;;19.37;58.88
10720;BME280;5411;58.386;15.560;2022-07-17T07:06:20;100853.81;;;19.48;57.17
10720;BME280;5411;58.386;15.560;2022-07-17T07:08:49;100844.72;;;19.54;56.67
10720;BME280;5411;58.386;15.560;2022-07-17T07:11:17;100841.56;;;19.63;56.84
10720;BME280;5411;58.386;15.560;2022-07-17T07:13:45;100843.91;;;19.76;56.98
10720;BME280;5411;58.386;15.560;2022-07-17T07:16:14;100847.53;;;19.81;56.81
10720;BME280;5411;58.386;15.560;2022-07-17T07:18:43;100845.56;;;19.77;56.28
10720;BME280;5411;58.386;15.560;2022-07-17T07:21:12;100845.88;;;19.80;55.31
10720;BME280;5411;58.386;15.560;2022-07-17T07:23:40;100845.09;;;19.85;55.04
10720;BME280;5411;58.386;15.560;2022-07-17T07:26:08;100842.91;;;19.82;53.65
10720;BME280;5411;58.386;15.560;2022-07-17T07:28:39;100849.22;;;19.87;53.59
10720;BME280;5411;58.386;15.560;2022-07-17T07:31:08;100850.97;;;19.99;52.58
10720;BME280;5411;58.386;15.560;2022-07-17T07:33:37;100839.81;;;20.17;51.02
10720;BME280;5411;58.386;15.560;2022-07-17T07:36:07;100840.47;;;20.29;49.69
10720;BME280;5411;58.386;15.560;2022-07-17T07:38:35;100833.00;;;20.36;50.61
10720;BME280;5411;58.386;15.560;2022-07-17T07:41:04;100841.50;;;20.45;49.04
10720;BME280;5411;58.386;15.560;2022-07-17T07:43:35;100840.75;;;20.49;49.98
10720;BME280;5411;58.386;15.560;2022-07-17T07:46:10;100832.19;;;20.68;53.04
10720;BME280;5411;58.386;15.560;2022-07-17T07:48:39;100831.06;;;20.90;49.98
10720;BME280;5411;58.386;15.560;2022-07-17T07:51:09;100835.25;;;21.08;51.60
10720;BME280;5411;58.386;15.560;2022-07-17T07:53:38;100833.69;;;21.17;49.95
10720;BME280;5411;58.386;15.560;2022-07-17T07:56:06;100828.53;;;21.16;50.13
10720;BME280;5411;58.386;15.560;2022-07-17T07:58:35;100837.16;;;21.03;50.08
10720;BME280;5411;58.386;15.560;2022-07-17T08:01:04;100828.63;;;20.94;50.60
10720;BME280;5411;58.386;15.560;2022-07-17T08:03:44;100842.88;;;21.06;51.46
10720;BME280;5411;58.386;15.560;2022-07-17T08:06:16;100834.38;;;20.97;51.16
10720;BME280;5411;58.386;15.560;2022-07-17T08:08:45;100832.13;;;20.89;52.20
10720;BME280;5411;58.386;15.560;2022-07-17T08:11:13;100840.72;;;21.08;52.31
10720;BME280;5411;58.386;15.560;2022-07-17T08:13:42;100839.72;;;21.19;52.03
10720;BME280;5411;58.386;15.560;2022-07-17T08:16:11;100845.59;;;21.38;50.98
10720;BME280;5411;58.386;15.560;2022-07-17T08:18:42;100832.91;;;21.54;50.91
10720;BME280;5411;58.386;15.560;2022-07-17T08:21:11;100835.66;;;21.64;51.31
10720;BME280;5411;58.386;15.560;2022-07-17T08:23:41;100843.00;;;21.63;52.06
10720;BME280;5411;58.386;15.560;2022-07-17T08:26:09;100841.38;;;21.62;52.35
10720;BME280;5411;58.386;15.560;2022-07-17T08:28:38;100845.22;;;21.66;51.56
10720;BME280;5411;58.386;15.560;2022-07-17T08:31:06;100847.44;;;21.75;52.20
10720;BME280;5411;58.386;15.560;2022-07-17T08:33:34;100835.66;;;21.64;52.61
10720;BME280;5411;58.386;15.560;2022-07-17T08:36:07;100845.47;;;21.65;53.36
10720;BME280;5411;58.386;15.560;2022-07-17T08:38:35;100834.53;;;21.60;53.41
10720;BME280;5411;58.386;15.560;2022-07-17T08:41:05;100841.34;;;21.57;52.99
10720;BME280;5411;58.386;15.560;2022-07-17T08:43:37;100843.53;;;21.55;53.64
10720;BME280;5411;58.386;15.560;2022-07-17T08:46:11;100841.69;;;21.71;54.42
10720;BME280;5411;58.386;15.560;2022-07-17T08:48:41;100838.25;;;21.91;54.40
10720;BME280;5411;58.386;15.560;2022-07-17T08:51:09;100834.53;;;22.07;53.31
10720;BME280;5411;58.386;15.560;2022-07-17T08:53:38;100841.00;;;21.96;51.60
10720;BME280;5411;58.386;15.560;2022-07-17T08:56:10;100839.31;;;21.90;52.17
10720;BME280;5411;58.386;15.560;2022-07-17T08:58:38;100836.09;;;21.98;52.20
10720;BME280;5411;58.386;15.560;2022-07-17T09:01:07;100847.81;;;21.93;50.66
10720;BME280;5411;58.386;15.560;2022-07-17T09:03:39;100843.13;;;21.89;51.85
10720;BME280;5411;58.386;15.560;2022-07-17T09:06:20;100844.75;;;21.80;52.79
10720;BME280;5411;58.386;15.560;2022-07-17T09:09:05;100852.97;;;21.90;53.12
10720;BME280;5411;58.386;15.560;2022-07-17T09:11:44;100848.28;;;21.85;52.85
10720;BME280;5411;58.386;15.560;2022-07-17T09:14:14;100854.25;;;21.77;52.58
10720;BME280;5411;58.386;15.560;2022-07-17T09:16:52;100851.53;;;21.77;53.32
10720;BME280;5411;58.386;15.560;2022-07-17T09:19:29;100851.06;;;21.90;53.84
10720;BME280;5411;58.386;15.560;2022-07-17T09:22:06;100848.69;;;22.04;53.07
10720;BME280;5411;58.386;15.560;2022-07-17T09:24:42;100845.69;;;22.06;52.60
10720;BME280;5411;58.386;15.560;2022-07-17T09:27:15;100848.97;;;22.13;54.18
10720;BME280;5411;58.386;15.560;2022-07-17T09:29:54;100841.06;;;22.11;54.55
10720;BME280;5411;58.386;15.560;2022-07-17T09:32:24;100840.31;;;22.31;54.88
10720;BME280;5411;58.386;15.560;2022-07-17T09:34:54;100835.19;;;22.45;54.74
10720;BME280;5411;58.386;15.560;2022-07-17T09:37:24;100833.00;;;22.57;54.09
10720;BME280;5411;58.386;15.560;2022-07-17T09:39:52;100825.91;;;22.56;54.24
10720;BME280;5411;58.386;15.560;2022-07-17T09:42:28;100831.13;;;22.62;54.43
10720;BME280;5411;58.386;15.560;2022-07-17T09:45:00;100841.47;;;22.65;54.46
10720;BME280;5411;58.386;15.560;2022-07-17T09:47:29;100836.59;;;22.72;54.06
10720;BME280;5411;58.386;15.560;2022-07-17T09:50:00;100838.19;;;22.58;54.79
10720;BME280;5411;58.386;15.560;2022-07-17T09:52:31;100831.63;;;22.54;54.68
10720;BME280;5411;58.386;15.560;2022-07-17T09:55:02;100821.31;;;22.61;55.66
10720;BME280;5411;58.386;15.560;2022-07-17T09:57:54;100824.84;;;22.67;55.48
10720;BME280;5411;58.386;15.560;2022-07-17T10:00:23;100831.38;;;22.66;55.54
10720;BME280;5411;58.386;15.560;2022-07-17T10:02:51;100842.59;;;22.74;56.02
10720;BME280;5411;58.386;15.560;2022-07-17T10:05:21;100849.19;;;22.89;55.62
10720;BME280;5411;58.386;15.560;2022-07-17T10:07:50;100859.00;;;23.00;55.78
10720;BME280;5411;58.386;15.560;2022-07-17T10:10:19;100866.38;;;22.99;54.26
10720;BME280;5411;58.386;15.560;2022-07-17T10:12:51;100854.09;;;23.07;55.73
10720;BME280;5411;58.386;15.560;2022-07-17T10:15:24;100859.56;;;23.12;54.69
10720;BME280;5411;58.386;15.560;2022-07-17T10:18:03;100854.06;;;22.92;54.36
10720;BME280;5411;58.386;15.560;2022-07-17T10:20:33;100861.16;;;22.78;56.22
10720;BME280;5411;58.386;15.560;2022-07-17T10:23:11;100867.66;;;22.56;56.81
10720;BME280;5411;58.386;15.560;2022-07-17T10:25:40;100863.84;;;22.57;56.80
10720;BME280;5411;58.386;15.560;2022-07-17T10:28:10;100861.66;;;22.59;57.07
10720;BME280;5411;58.386;15.560;2022-07-17T10:30:41;100861.66;;;22.49;57.48
10720;BME280;5411;58.386;15.560;2022-07-17T10:33:15;100865.72;;;22.47;57.53
10720;BME280;5411;58.386;15.560;2022-07-17T10:35:46;100860.81;;;22.44;58.11
10720;BME280;5411;58.386;15.560;2022-07-17T10:38:15;100862.19;;;22.51;58.24
10720;BME280;5411;58.386;15.560;2022-07-17T10:40:43;100855.69;;;22.62;58.15
10720;BME280;5411;58.386;15.560;2022-07-17T10:43:16;100856.81;;;22.77;58.26
10720;BME280;5411;58.386;15.560;2022-07-17T10:45:46;100855.69;;;22.62;58.17
10720;BME280;5411;58.386;15.560;2022-07-17T10:48:16;100858.63;;;22.51;58.90
10720;BME280;5411;58.386;15.560;2022-07-17T10:50:48;100866.53;;;22.42;59.37
10720;BME280;5411;58.386;15.560;2022-07-17T10:53:18;100854.50;;;22.38;58.90
10720;BME280;5411;58.386;15.560;2022-07-17T10:55:53;100859.75;;;22.50;59.60
10720;BME280;5411;58.386;15.560;2022-07-17T10:58:26;100856.19;;;22.49;58.02
10720;BME280;5411;58.386;15.560;2022-07-17T11:01:06;100857.56;;;22.67;57.96
10720;BME280;5411;58.386;15.560;2022-07-17T11:03:40;100866.88;;;22.71;57.60
10720;BME280;5411;58.386;15.560;2022-07-17T11:06:10;100856.00;;;22.76;59.23
10720;BME280;5411;58.386;15.560;2022-07-17T11:08:42;100873.72;;;22.84;58.45
10720;BME280;5411;58.386;15.560;2022-07-17T11:11:18;100864.75;;;23.03;58.08
10720;BME280;5411;58.386;15.560;2022-07-17T11:14:07;100862.00;;;23.29;57.47
10720;BME280;5411;58.386;15.560;2022-07-17T11:16:36;100862.25;;;23.37;56.60
10720;BME280;5411;58.386;15.560;2022-07-17T11:19:22;100859.25;;;23.34;56.08
10720;BME280;5411;58.386;15.560;2022-07-17T11:21:52;100861.69;;;23.30;55.97
10720;BME280;5411;58.386;15.560;2022-07-17T11:24:20;100861.47;;;23.27;55.91
10720;BME280;5411;58.386;15.560;2022-07-17T11:26:50;100859.78;;;23.46;56.45
10720;BME280;5411;58.386;15.560;2022-07-17T11:29:20;100866.09;;;23.57;56.28
10720;BME280;5411;58.386;15.560;2022-07-17T11:31:54;100869.63;;;23.67;56.53
10720;BME280;5411;58.386;15.560;2022-07-17T11:34:24;100870.41;;;23.78;55.77
10720;BME280;5411;58.386;15.560;2022-07-17T11:36:59;100869.03;;;23.70;55.68
10720;BME280;5411;58.386;15.560;2022-07-17T11:39:37;100863.38;;;23.52;55.49
10720;BME280;5411;58.386;15.560;2022-07-17T11:42:07;100873.44;;;23.46;56.35
10720;BME280;5411;58.386;15.560;2022-07-17T11:44:38;100862.00;;;23.24;56.51
10720;BME280;5411;58.386;15.560;2022-07-17T11:47:07;100870.75;;;23.16;57.54
10720;BME280;5411;58.386;15.560;2022-07-17T11:49:36;100874.84;;;23.03;57.63
10720;BME280;5411;58.386;15.560;2022-07-17T11:52:08;100869.09;;;22.94;58.08
10720;BME280;5411;58.386;15.560;2022-07-17T11:54:43;100853.53;;;22.95;58.92
10720;BME280;5411;58.386;15.560;2022-07-17T11:57:13;100852.72;;;22.84;57.18
10720;BME280;5411;58.386;15.560;2022-07-17T11:59:43;100857.91;;;22.91;57.97
10720;BME280;5411;58.386;15.560;2022-07-17T12:02:16;100843.72;;;22.89;56.69
10720;BME280;5411;58.386;15.560;2022-07-17T12:04:49;100846.13;;;22.70;58.25
10720;BME280;5411;58.386;15.560;2022-07-17T12:07:18;100852.66;;;22.59;57.84
10720;BME280;5411;58.386;15.560;2022-07-17T12:09:47;100854.81;;;22.52;58.71
10720;BME280;5411;58.386;15.560;2022-07-17T12:12:19;100844.19;;;22.50;59.91
10720;BME280;5411;58.386;15.560;2022-07-17T12:14:51;100842.03;;;22.57;60.11
10720;BME280;5411;58.386;15.560;2022-07-17T12:17:20;100849.69;;;22.75;59.35
10720;BME280;5411;58.386;15.560;2022-07-17T12:19:50;100846.19;;;22.90;58.01
10720;BME280;5411;58.386;15.560;2022-07-17T12:22:22;100840.19;;;23.03;57.36
10720;BME280;5411;58.386;15.560;2022-07-17T12:24:51;100832.78;;;23.14;57.00
10720;BME280;5411;58.386;15.560;2022-07-17T12:27:19;100822.94;;;23.28;55.58
10720;BME280;5411;58.386;15.560;2022-07-17T12:29:47;100828.66;;;23.37;55.29
10720;BME280;5411;58.386;15.560;2022-07-17T12:32:17;100827.59;;;23.28;56.19
10720;BME280;5411;58.386;15.560;2022-07-17T12:34:47;100833.31;;;23.26;55.45
10720;BME280;5411;58.386;15.560;2022-07-17T12:37:17;100833.88;;;23.28;54.59
10720;BME280;5411;58.386;15.560;2022-07-17T12:39:47;100838.50;;;23.33;56.17
10720;BME280;5411;58.386;15.560;2022-07-17T12:42:18;100836.84;;;23.42;56.67
10720;BME280;5411;58.386;15.560;2022-07-17T12:44:47;100825.91;;;23.47;55.88
10720;BME280;5411;58.386;15.560;2022-07-17T12:47:17;100834.94;;;23.53;55.82
10720;BME280;5411;58.386;15.560;2022-07-17T12:49:45;100836.81;;;23.47;55.67
10720;BME280;5411;58.386;15.560;2022-07-17T12:52:13;100832.75;;;23.39;55.56
10720;BME280;5411;58.386;15.560;2022-07-17T12:54:42;100832.75;;;23.39;55.95
10720;BME280;5411;58.386;15.560;2022-07-17T12:57:10;100840.69;;;23.26;55.40
10720;BME280;5411;58.386;15.560;2022-07-17T12:59:38;100840.72;;;23.16;55.17
10720;BME280;5411;58.386;15.560;2022-07-17T13:02:07;100836.34;;;23.09;56.42